Terminal Aerodrome Forecast
Issued by NWS

Home | Current Version | Previous Version | Text Only | Print | Product List | Glossary On
Versions: 1 2 3 4 5 6 7 8 9 10 11 12 13 14 15 16 17 18 19 20 21 22 23 24 25 26 27
000
FTUS45 KLKN 301120
TAFWMC
TAF
KWMC 301120Z 3012/3112 VRB06KT P6SM SKC
     FM310000 35008KT P6SM FEW120 SCT250
     FM310600 05008KT P6SM SCT120=

USA.gov is the U.S. government's official web portal to all federal, state and local government web resources and services.